Time;durP1;ratioP1;P1;durP2;ratioP2;P2;SDS_P1;SDS_P2;PMS_P1;PMS_P2;Temp;Humidity;BMP_temperature;BMP_pressure;BME280_temperature;BME280_humidity;BME280_pressure;Samples;Min_cycle;Max_cycle;Signal;HPM_P1;HPM_P2
2021/12/19 00:00:27;;;;;;;3.95;2.28;;;;;;;5.32;100.00;103090.72;5079420;28;20036;-47
2021/12/19 00:03:30;;;;;;;6.35;3.33;;;;;;;5.30;100.00;103092.59;5082530;28;20483;-52
2021/12/19 00:11:00;;;;;;;7.20;2.40;;;;;;;5.25;100.00;103084.16;5074058;28;20490;-49
2021/12/19 00:13:26;;;;;;;4.65;3.00;;;;;;;5.21;100.00;103078.22;5071109;28;20457;-50
2021/12/19 00:15:53;;;;;;;7.00;3.67;;;;;;;5.20;100.00;103080.94;5072924;28;20461;-50
2021/12/19 00:18:18;;;;;;;5.60;2.47;;;;;;;5.20;100.00;103080.94;5074944;28;20028;-51
2021/12/19 00:20:44;;;;;;;4.70;2.17;;;;;;;5.21;100.00;103078.22;5081014;28;20050;-53
2021/12/19 00:23:10;;;;;;;7.88;3.35;;;;;;;5.19;100.00;103084.53;5085933;28;20028;-47
2021/12/19 00:25:35;;;;;;;7.63;2.92;;;;;;;5.12;100.00;103077.94;5075655;28;20032;-51
2021/12/19 00:28:01;;;;;;;3.60;2.10;;;;;;;5.05;100.00;103071.34;5075766;28;20038;-51
2021/12/19 00:30:26;;;;;;;4.18;2.92;;;;;;;5.05;100.00;103076.59;5081022;28;20102;-49
2021/12/19 00:32:52;;;;;;;5.10;2.45;;;;;;;5.00;100.00;103068.97;5085088;28;20128;-49
2021/12/19 00:35:17;;;;;;;3.95;1.92;;;;;;;4.97;100.00;103070.00;5083704;28;20431;-52
2021/12/19 00:37:43;;;;;;;4.35;2.30;;;;;;;4.96;100.00;103073.59;5076629;28;20062;-47
2021/12/19 00:40:09;;;;;;;4.07;2.33;;;;;;;4.95;100.00;103069.25;5075037;28;20040;-50
2021/12/19 00:42:36;;;;;;;5.75;2.22;;;;;;;4.95;100.00;103071.88;5079273;28;20127;-50
2021/12/19 00:45:12;;;;;;;1.85;1.45;;;;;;;4.91;100.00;103070.38;5079158;28;20042;-48
2021/12/19 00:47:37;;;;;;;4.45;1.77;;;;;;;4.88;100.00;103062.69;5079280;28;20035;-49
2021/12/19 00:50:03;;;;;;;5.63;1.92;;;;;;;4.89;100.00;103068.78;5080328;28;20036;-47
2021/12/19 00:52:29;;;;;;;3.78;1.90;;;;;;;4.88;100.00;103075.81;5081938;28;20097;-50
2021/12/19 00:54:54;;;;;;;4.53;1.83;;;;;;;4.83;100.00;103072.63;5082367;28;20119;-46
2021/12/19 00:57:19;;;;;;;2.70;1.80;;;;;;;4.81;100.00;103064.81;5078953;28;20497;-52
2021/12/19 00:59:45;;;;;;;4.07;2.17;;;;;;;4.77;100.00;103062.44;5082851;28;20035;-48
2021/12/19 01:02:10;;;;;;;11.40;3.10;;;;;;;4.78;100.00;103058.91;5083976;28;21182;-53
2021/12/19 01:04:36;;;;;;;3.38;1.83;;;;;;;4.75;100.00;103056.44;5083207;28;20032;-51
2021/12/19 01:07:02;;;;;;;3.35;1.42;;;;;;;4.75;100.00;103059.06;5083686;28;20051;-51
2021/12/19 01:09:28;;;;;;;4.68;1.63;;;;;;;4.74;100.00;103055.59;5076419;28;20032;-51
2021/12/19 01:11:53;;;;;;;4.05;1.30;;;;;;;4.72;100.00;103060.06;5068081;28;20084;-49
2021/12/19 01:14:19;;;;;;;2.22;1.38;;;;;;;4.72;100.00;103059.25;5081859;28;20095;-50
2021/12/19 01:16:45;;;;;;;13.57;2.83;;;;;;;4.73;100.00;103060.94;5084780;28;20066;-51
2021/12/19 01:19:10;;;;;;;2.80;1.48;;;;;;;4.76;100.00;103055.50;5083331;28;20028;-51
2021/12/19 01:21:36;;;;;;;4.38;1.73;;;;;;;4.73;100.00;103059.16;5082443;28;20073;-50
2021/12/19 01:24:02;;;;;;;6.30;2.53;;;;;;;4.67;100.00;103056.88;5083093;28;20032;-50
2021/12/19 01:26:27;;;;;;;3.22;1.58;;;;;;;4.63;100.00;103059.78;5082794;28;20058;-49
2021/12/19 01:28:53;;;;;;;7.25;2.38;;;;;;;4.57;100.00;103058.38;5084058;28;20111;-49
2021/12/19 01:31:18;;;;;;;3.35;1.55;;;;;;;4.57;100.00;103051.31;5079972;28;20028;-51
2021/12/19 01:33:43;;;;;;;3.72;1.42;;;;;;;4.54;100.00;103054.13;5083204;28;20249;-52
2021/12/19 01:36:09;;;;;;;2.20;1.45;;;;;;;4.54;100.00;103051.50;5085061;28;20028;-49
2021/12/19 01:38:35;;;;;;;2.38;1.60;;;;;;;4.57;100.00;103051.31;5085255;28;20032;-52
2021/12/19 01:41:01;;;;;;;5.15;1.40;;;;;;;4.55;100.00;103041.84;5085811;28;20036;-48
2021/12/19 01:43:27;;;;;;;4.47;1.38;;;;;;;4.50;100.00;103042.09;5082558;28;20500;-53
2021/12/19 01:45:54;;;;;;;2.70;1.33;;;;;;;4.51;100.00;103038.53;5080902;28;20511;-48
2021/12/19 01:48:20;;;;;;;3.28;1.20;;;;;;;4.56;100.00;103040.91;5087392;28;20427;-49
2021/12/19 01:50:46;;;;;;;3.90;1.55;;;;;;;4.57;100.00;103045.22;5076980;28;20482;-49
2021/12/19 01:53:12;;;;;;;1.80;1.15;;;;;;;4.57;100.00;103035.56;5072174;28;20036;-49
2021/12/19 01:55:40;;;;;;;3.35;1.52;;;;;;;4.56;100.00;103038.25;5082817;28;20342;-47
2021/12/19 01:58:06;;;;;;;6.68;1.67;;;;;;;4.53;100.00;103035.81;5073329;28;20032;-48
2021/12/19 02:00:46;;;;;;;4.40;1.90;;;;;;;4.51;100.00;103038.53;5084358;28;20358;-48
2021/12/19 02:03:12;;;;;;;5.82;2.22;;;;;;;4.50;100.00;103047.34;5079420;28;20430;-48
2021/12/19 02:05:38;;;;;;;3.28;1.55;;;;;;;4.51;100.00;103049.03;5081387;28;20111;-50
2021/12/19 02:08:05;;;;;;;3.85;1.73;;;;;;;4.54;100.00;103051.50;5080296;28;20035;-49
2021/12/19 02:10:33;;;;;;;2.50;1.23;;;;;;;4.63;100.00;103050.13;5080568;28;20025;-50
2021/12/19 02:13:00;;;;;;;3.60;1.98;;;;;;;4.61;100.00;103044.09;5082481;28;20051;-49
2021/12/19 02:15:28;;;;;;;6.55;1.92;;;;;;;4.64;100.00;103045.69;5081174;28;20024;-48
2021/12/19 02:17:58;;;;;;;2.00;1.13;;;;;;;4.58;100.00;103034.63;5081986;28;20397;-49
2021/12/19 02:20:26;;;;;;;1.30;0.85;;;;;;;4.49;100.00;103039.53;5079135;28;20028;-49
2021/12/19 02:22:51;;;;;;;2.42;1.75;;;;;;;4.48;100.00;103029.97;5078023;28;20057;-50
2021/12/19 02:25:17;;;;;;;2.20;1.15;;;;;;;4.48;100.00;103030.81;5082438;28;20035;-51
2021/12/19 02:27:43;;;;;;;2.10;0.77;;;;;;;4.48;100.00;103036.09;5081366;28;20382;-47
2021/12/19 02:30:11;;;;;;;1.55;1.25;;;;;;;4.34;100.00;103036.03;5082642;28;20576;-53
2021/12/19 02:32:39;;;;;;;1.30;0.73;;;;;;;4.23;100.00;103034.00;5075373;28;20105;-51
2021/12/19 02:35:08;;;;;;;1.13;0.43;;;;;;;4.14;100.00;103024.88;5076880;28;20571;-50
2021/12/19 02:40:34;;;;;;;2.95;1.25;;;;;;;4.08;100.00;103021.75;5085306;28;20016;-52
2021/12/19 02:48:30;;;;;;;3.13;1.33;;;;;;;4.21;100.00;103008.75;5081787;28;20051;-50
2021/12/19 02:50:56;;;;;;;2.15;1.00;;;;;;;4.18;100.00;103009.78;5086459;28;20036;-48
2021/12/19 02:53:36;;;;;;;7.00;2.00;;;;;;;4.13;100.00;103015.31;5074517;28;20036;-48
2021/12/19 02:56:05;;;;;;;1.63;0.93;;;;;;;4.08;100.00;103014.72;5084585;28;20032;-48
2021/12/19 02:58:32;;;;;;;1.30;0.65;;;;;;;4.08;100.00;103016.50;5075383;28;20067;-50
2021/12/19 03:00:59;;;;;;;1.98;0.73;;;;;;;4.07;100.00;103006.94;5083090;28;20064;-49
2021/12/19 03:03:25;;;;;;;0.98;0.57;;;;;;;4.11;100.00;103008.47;5073682;28;20021;-48
2021/12/19 03:05:50;;;;;;;2.67;0.85;;;;;;;4.13;100.00;103006.56;5077030;28;20032;-52
2021/12/19 03:08:16;;;;;;;1.13;0.90;;;;;;;4.12;100.00;103003.09;5075783;28;20034;-49
2021/12/19 03:18:35;;;;;;;1.30;0.65;;;;;;;4.06;100.00;102982.47;5081545;28;20039;-47
2021/12/19 03:21:00;;;;;;;1.55;0.82;;;;;;;3.96;100.00;102977.81;5078041;28;20392;-51
2021/12/19 03:23:26;;;;;;;0.98;0.68;;;;;;;3.88;100.00;102980.88;5080845;28;20028;-51
2021/12/19 03:25:52;;;;;;;0.75;0.38;;;;;;;3.82;100.00;102975.97;5078070;28;20040;-50
2021/12/19 03:28:17;;;;;;;1.13;0.73;;;;;;;3.78;100.00;102983.16;5077970;28;20070;-47
2021/12/19 03:30:45;;;;;;;0.32;0.32;;;;;;;3.82;100.00;102979.44;5085706;28;20052;-50
2021/12/19 03:33:12;;;;;;;1.08;0.50;;;;;;;3.77;100.00;102978.88;5074769;28;20041;-52
2021/12/19 03:35:39;;;;;;;2.50;1.20;;;;;;;3.75;100.00;102977.25;5078302;28;20024;-49
2021/12/19 03:38:09;;;;;;;2.30;0.85;;;;;;;3.74;100.00;102975.53;5080895;28;20032;-51
2021/12/19 03:40:37;;;;;;;1.20;0.52;;;;;;;3.74;100.00;102971.13;5071640;28;20056;-49
2021/12/19 03:43:09;;;;;;;3.65;0.68;;;;;;;3.70;100.00;102974.88;5079020;28;20123;-48
2021/12/19 03:45:35;;;;;;;1.85;1.20;;;;;;;3.64;100.00;102973.44;5083951;28;20028;-49
2021/12/19 03:48:03;;;;;;;5.20;1.98;;;;;;;3.65;100.00;102971.66;5078644;28;20032;-48
2021/12/19 03:50:30;;;;;;;7.20;1.33;;;;;;;3.66;100.00;102968.94;5068197;28;20028;-49
2021/12/19 03:52:56;;;;;;;7.55;0.50;;;;;;;3.59;100.00;102962.34;5069267;28;20402;-52
2021/12/19 03:55:24;;;;;;;1.30;0.68;;;;;;;3.53;100.00;102957.44;5074240;28;20032;-53
2021/12/19 03:57:50;;;;;;;5.18;0.90;;;;;;;3.53;100.00;102967.09;5075616;28;20473;-47
2021/12/19 04:00:23;;;;;;;2.75;0.30;;;;;;;3.50;100.00;102958.44;5082938;28;20118;-47
2021/12/19 04:02:49;;;;;;;2.47;0.50;;;;;;;3.46;100.00;102953.47;5077226;28;20386;-50
2021/12/19 04:05:15;;;;;;;0.68;0.22;;;;;;;3.38;100.00;102953.88;5082951;28;20109;-51
2021/12/19 04:07:40;;;;;;;3.60;0.50;;;;;;;3.34;100.00;102947.09;5082774;28;20036;-49
2021/12/19 04:10:06;;;;;;;4.47;1.30;;;;;;;3.30;100.00;102949.97;5074343;28;20026;-52
2021/12/19 04:12:31;;;;;;;3.03;0.50;;;;;;;3.27;100.00;102951.81;5072669;28;20028;-53
2021/12/19 04:14:57;;;;;;;0.80;0.20;;;;;;;3.27;100.00;102950.97;5078391;28;20033;-48
2021/12/19 04:17:22;;;;;;;0.55;0.50;;;;;;;3.24;100.00;102952.00;5083547;28;20032;-47
2021/12/19 04:19:49;;;;;;;0.30;0.20;;;;;;;3.26;100.00;102947.53;5075985;28;20024;-48
2021/12/19 04:22:14;;;;;;;6.72;1.55;;;;;;;3.18;100.00;102936.59;5069654;28;20054;-49
2021/12/19 04:24:40;;;;;;;1.17;0.30;;;;;;;3.16;100.00;102948.09;5075803;28;20373;-48
2021/12/19 04:27:06;;;;;;;0.05;0.03;;;;;;;3.19;100.00;102942.69;5074345;28;20032;-49
2021/12/19 04:29:32;;;;;;;0.50;0.22;;;;;;;3.19;100.00;102940.06;5082163;28;20028;-49
2021/12/19 04:31:57;;;;;;;0.32;0.32;;;;;;;3.25;100.00;102935.34;5082491;28;20035;-50
2021/12/19 04:34:24;;;;;;;0.68;0.68;;;;;;;3.31;100.00;102942.03;5077402;28;20024;-47
2021/12/19 04:36:57;;;;;;;0.10;0.10;;;;;;;3.30;100.00;102944.72;5077848;28;20035;-49
2021/12/19 04:53:22;;;;;;;0.35;0.28;;;;;;;3.23;100.00;102928.50;5080247;28;20081;-49
2021/12/19 04:58:16;;;;;;;0.20;0.15;;;;;;;3.20;100.00;102919.03;5078969;28;20482;-49
2021/12/19 05:00:59;;;;;;;3.92;0.40;;;;;;;3.11;100.00;102919.50;5083132;28;20032;-47
2021/12/19 05:06:06;;;;;;;0.13;0.10;;;;;;;2.93;100.00;102917.88;5075635;28;20040;-47
2021/12/19 05:14:08;;;;;;;0.60;0.28;;;;;;;2.74;100.00;102913.59;5076675;28;20051;-49
2021/12/19 05:16:37;;;;;;;0.30;0.10;;;;;;;2.77;100.00;102913.44;5068530;28;20063;-51
2021/12/19 05:19:17;;;;;;;0.10;0.08;;;;;;;2.81;100.00;102906.25;5078876;28;20628;-50
2021/12/19 05:21:42;;;;;;;0.73;0.28;;;;;;;2.83;100.00;102909.66;5065725;28;20036;-51
2021/12/19 05:24:32;;;;;;;1.85;0.40;;;;;;;2.84;100.00;102911.34;5073957;28;20036;-53
2021/12/19 05:26:58;;;;;;;4.97;0.50;;;;;;;2.83;100.00;102913.09;5074747;28;20032;-49
2021/12/19 05:29:23;;;;;;;0.70;0.20;;;;;;;2.86;100.00;102911.25;5075746;28;20086;-48
2021/12/19 05:31:49;;;;;;;0.40;0.40;;;;;;;2.93;100.00;102900.38;5068561;28;20032;-51
2021/12/19 05:34:14;;;;;;;0.85;0.30;;;;;;;2.92;100.00;102893.44;5075409;28;20035;-51
2021/12/19 05:47:23;;;;;;;2.90;0.57;;;;;;;2.71;100.00;102889.31;5088618;28;20047;-52
2021/12/19 05:49:49;;;;;;;4.35;0.50;;;;;;;2.63;100.00;102892.34;5087514;28;20533;-53
2021/12/19 05:52:14;;;;;;;6.60;0.82;;;;;;;2.54;100.00;102893.69;5071146;28;20032;-50
2021/12/19 05:54:40;;;;;;;0.25;0.13;;;;;;;2.49;100.00;102887.84;5075476;28;20061;-48
2021/12/19 05:57:05;;;;;;;3.80;0.30;;;;;;;2.45;100.00;102885.44;5080549;28;20032;-48
2021/12/19 05:59:30;;;;;;;4.47;1.17;;;;;;;2.39;100.00;102878.75;5086159;28;20032;-48
2021/12/19 06:01:56;;;;;;;0.98;0.20;;;;;;;2.32;100.00;102883.50;5086755;28;20043;-49
2021/12/19 06:04:21;;;;;;;0.28;0.13;;;;;;;2.30;100.00;102885.31;5084527;28;20115;-49
2021/12/19 06:06:47;;;;;;;5.00;1.02;;;;;;;2.29;100.00;102886.22;5077271;28;20028;-50
2021/12/19 06:09:13;;;;;;;1.65;0.30;;;;;;;2.33;100.00;102884.31;5077901;28;20798;-52
2021/12/19 06:11:38;;;;;;;0.30;0.30;;;;;;;2.34;100.00;102881.63;5067998;28;20043;-51
2021/12/19 06:14:04;;;;;;;2.92;0.50;;;;;;;2.34;100.00;102886.84;5077661;28;20040;-47
2021/12/19 06:16:30;;;;;;;2.53;0.32;;;;;;;2.31;100.00;102881.78;5079397;28;20099;-51
2021/12/19 06:18:56;;;;;;;2.80;0.70;;;;;;;2.26;100.00;102878.53;5082526;28;20060;-46
2021/12/19 06:21:21;;;;;;;8.98;1.17;;;;;;;2.18;100.00;102881.56;5071476;28;20071;-51
2021/12/19 06:23:46;;;;;;;2.58;0.30;;;;;;;2.13;100.00;102878.31;5069720;28;20032;-51
2021/12/19 06:26:12;;;;;;;9.38;0.90;;;;;;;2.10;100.00;102868.00;5081540;28;20315;-52
2021/12/19 06:28:38;;;;;;;16.00;0.65;;;;;;;2.09;100.00;102865.47;5083271;28;20116;-49
2021/12/19 06:31:03;;;;;;;8.57;1.13;;;;;;;2.06;100.00;102868.22;5073740;28;20366;-53
2021/12/19 06:33:29;;;;;;;4.65;0.63;;;;;;;2.01;100.00;102868.47;5079142;28;20032;-48
2021/12/19 06:35:54;;;;;;;6.28;1.08;;;;;;;2.02;100.00;102869.31;5078170;28;20036;-53
2021/12/19 06:38:19;;;;;;;2.88;0.40;;;;;;;2.02;100.00;102864.94;5072012;28;20032;-49
2021/12/19 06:40:45;;;;;;;1.58;0.40;;;;;;;2.00;100.00;102860.69;5080609;28;20412;-53
2021/12/19 06:43:10;;;;;;;7.72;0.80;;;;;;;1.95;100.00;102867.00;5081831;28;20123;-52
2021/12/19 06:45:36;;;;;;;12.52;0.50;;;;;;;1.90;100.00;102862.94;5085354;28;20031;-48
2021/12/19 06:48:01;;;;;;;3.60;0.22;;;;;;;1.87;100.00;102861.31;5077073;28;20032;-49
2021/12/19 06:50:27;;;;;;;7.95;0.63;;;;;;;1.83;100.00;102864.16;5067024;28;20040;-51
2021/12/19 06:52:53;;;;;;;3.70;1.55;;;;;;;1.80;100.00;102859.91;5074883;28;20051;-51
2021/12/19 06:55:18;;;;;;;5.50;0.22;;;;;;;1.76;100.00;102855.78;5077328;28;20039;-50
2021/12/19 06:57:44;;;;;;;4.07;0.35;;;;;;;1.70;100.00;102854.31;5075966;28;20029;-48
2021/12/19 07:00:19;;;;;;;9.02;0.47;;;;;;;1.67;100.00;102854.44;5083750;28;20036;-47
2021/12/19 07:02:45;;;;;;;7.28;0.40;;;;;;;1.64;100.00;102854.59;5073564;28;20024;-48
2021/12/19 07:05:10;;;;;;;5.35;0.38;;;;;;;1.65;100.00;102855.44;5068677;28;20042;-50
2021/12/19 07:07:36;;;;;;;6.93;0.47;;;;;;;1.55;100.00;102857.66;5112098;27;20032;-50
2021/12/19 07:10:03;;;;;;;12.95;0.73;;;;;;;1.49;100.00;102853.56;5074017;28;20394;-47
2021/12/19 07:12:29;;;;;;;8.27;0.60;;;;;;;1.40;100.00;102854.00;5072878;28;20024;-47
2021/12/19 07:14:56;;;;;;;3.60;0.65;;;;;;;1.40;100.00;102848.78;5084883;28;20041;-49
2021/12/19 07:17:21;;;;;;;4.25;0.40;;;;;;;1.38;100.00;102844.56;5079346;28;20545;-51
2021/12/19 07:19:46;;;;;;;4.53;0.40;;;;;;;1.33;100.00;102850.00;5072654;28;20062;-52
2021/12/19 07:22:12;;;;;;;4.00;0.43;;;;;;;1.28;100.00;102838.91;5069031;28;20123;-50
2021/12/19 07:24:37;;;;;;;2.95;0.60;;;;;;;1.26;100.00;102828.50;5073517;28;20028;-52
2021/12/19 07:27:03;;;;;;;1.85;0.25;;;;;;;1.22;100.00;102847.03;5086418;28;20122;-49
2021/12/19 07:29:30;;;;;;;1.55;0.65;;;;;;;1.18;100.00;102842.88;5074961;28;20469;-47
2021/12/19 07:31:55;;;;;;;0.50;0.28;;;;;;;1.19;100.00;102841.94;5082434;28;20085;-49
2021/12/19 07:34:28;;;;;;;4.85;1.17;;;;;;;1.15;100.00;102837.78;5073498;28;20072;-48
2021/12/19 07:36:54;;;;;;;5.78;0.85;;;;;;;1.22;100.00;102839.22;5082148;28;20032;-50
2021/12/19 07:40:21;;;;;;;5.60;0.52;;;;;;;1.20;100.00;102841.03;5081093;28;20759;-51
2021/12/19 07:42:13;;;;;;;0.85;0.30;;;;;;;1.11;100.00;102834.50;5065372;28;20040;-49
2021/12/19 07:44:39;;;;;;;6.20;0.38;;;;;;;1.07;100.00;102839.00;5074766;28;20093;-48
2021/12/19 07:47:07;;;;;;;5.07;0.40;;;;;;;1.03;100.00;102833.97;5077031;28;20065;-51
2021/12/19 07:49:32;;;;;;;11.00;1.15;;;;;;;0.97;100.00;102834.28;5085492;28;20024;-46
2021/12/19 07:51:58;;;;;;;0.40;0.10;;;;;;;0.92;100.00;102833.63;5075837;28;20089;-48
2021/12/19 07:54:23;;;;;;;2.17;0.30;;;;;;;0.92;100.00;102831.88;5079002;28;20032;-48
2021/12/19 07:56:49;;;;;;;0.80;0.50;;;;;;;0.91;100.00;102838.03;5079451;28;20028;-50
2021/12/19 07:59:15;;;;;;;1.55;0.28;;;;;;;0.98;100.00;102826.38;5080342;28;20496;-50
2021/12/19 08:01:40;;;;;;;11.40;0.70;;;;;;;0.97;100.00;102836.88;5080846;28;20382;-51
2021/12/19 08:04:06;;;;;;;47.33;3.03;;;;;;;0.96;100.00;102833.44;5080524;28;20557;-48
2021/12/19 08:06:31;;;;;;;1.27;0.50;;;;;;;0.87;100.00;102826.00;5078493;28;20900;-53
2021/12/19 08:08:58;;;;;;;3.55;0.13;;;;;;;0.78;100.00;102829.06;5080794;28;20041;-52
2021/12/19 08:11:40;;;;;;;2.30;0.10;;;;;;;0.69;100.00;102825.06;5073255;28;20025;-52
2021/12/19 08:14:12;;;;;;;6.22;0.65;;;;;;;0.62;100.00;102827.13;5083543;28;20039;-49
2021/12/19 08:16:39;;;;;;;2.90;0.38;;;;;;;0.60;100.00;102825.50;5083746;28;20469;-49
2021/12/19 08:19:05;;;;;;;1.33;0.22;;;;;;;0.59;100.00;102827.25;5077099;28;20020;-50
2021/12/19 08:21:31;;;;;;;0.35;0.10;;;;;;;0.52;100.00;102818.00;5079058;28;20512;-50
2021/12/19 08:24:00;;;;;;;1.38;0.20;;;;;;;0.51;100.00;102825.91;5072923;28;20068;-48
2021/12/19 08:26:25;;;;;;;0.50;0.10;;;;;;;0.49;100.00;102819.91;5078248;28;20071;-50
2021/12/19 08:28:51;;;;;;;1.10;0.15;;;;;;;0.42;100.00;102816.72;5077454;28;20589;-49
2021/12/19 08:31:16;;;;;;;9.38;0.40;;;;;;;0.32;100.00;102818.88;5079623;28;20036;-50
2021/12/19 08:33:42;;;;;;;0.22;0.15;;;;;;;0.22;100.00;102823.66;5074593;28;20097;-51
2021/12/19 08:36:07;;;;;;;0.30;0.10;;;;;;;0.22;100.00;102821.03;5078464;28;20062;-49
2021/12/19 08:38:33;;;;;;;4.57;0.28;;;;;;;0.20;100.00;102815.03;5077288;28;20055;-50
2021/12/19 08:40:59;;;;;;;4.78;0.60;;;;;;;0.19;100.00;102833.38;5078494;28;20076;-50
2021/12/19 08:43:26;;;;;;;6.22;0.90;;;;;;;0.17;100.00;102825.63;5082351;28;20028;-47
2021/12/19 08:45:51;;;;;;;2.63;0.17;;;;;;;0.09;100.00;102825.09;5077604;28;20067;-50
2021/12/19 08:48:18;;;;;;;40.97;2.45;;;;;;;0.03;100.00;102827.09;5077239;28;20764;-53
2021/12/19 08:50:45;;;;;;;1.55;0.47;;;;;;;0.09;100.00;102824.25;5075440;28;20403;-49
2021/12/19 08:53:11;;;;;;;1.05;0.63;;;;;;;0.09;100.00;102827.72;5078053;28;20487;-51
2021/12/19 08:55:37;;;;;;;47.15;3.00;;;;;;;0.05;100.00;102823.53;5077386;28;20025;-50
2021/12/19 08:58:02;;;;;;;2.33;0.43;;;;;;;-0.05;100.00;102840.50;5078741;28;20374;-49
2021/12/19 09:00:30;;;;;;;1.90;0.43;;;;;;;-0.13;100.00;102835.59;5077037;28;20028;-50
2021/12/19 09:02:56;;;;;;;0.50;0.17;;;;;;;-0.14;100.00;102833.06;5078650;28;20475;-50
2021/12/19 09:05:26;;;;;;;3.15;0.20;;;;;;;-0.12;100.00;102828.63;5080223;28;20039;-50
2021/12/19 09:07:52;;;;;;;0.47;0.10;;;;;;;-0.12;100.00;102831.22;5073333;28;20619;-50
2021/12/19 09:10:19;;;;;;;0.40;0.20;;;;;;;-0.11;100.00;102819.88;5080347;28;20115;-47
2021/12/19 09:12:45;;;;;;;0.20;0.15;;;;;;;-0.08;100.00;102831.06;5076606;28;20518;-47
2021/12/19 09:15:12;;;;;;;0.77;0.10;;;;;;;-0.04;100.00;102826.53;5080791;28;20606;-49
2021/12/19 09:17:37;;;;;;;0.55;0.55;;;;;;;0.03;100.00;102832.31;5084201;28;20043;-49
2021/12/19 09:20:05;;;;;;;0.98;0.40;;;;;;;0.06;100.00;102827.84;5076220;28;20021;-50
2021/12/19 09:22:30;;;;;;;1.92;0.10;;;;;;;0.08;100.00;102831.25;5082576;28;20814;-47
2021/12/19 09:24:55;;;;;;;0.98;0.55;;;;;;;0.08;100.00;102825.16;5080563;28;20507;-51
2021/12/19 09:27:21;;;;;;;0.43;0.10;;;;;;;0.12;100.00;102822.34;5082276;28;20515;-50
2021/12/19 09:29:46;;;;;;;0.20;0.10;;;;;;;0.18;100.00;102822.13;5084210;28;20039;-50
2021/12/19 09:32:11;;;;;;;2.03;0.35;;;;;;;0.24;100.00;102817.53;5078620;28;20071;-50
2021/12/19 09:34:37;;;;;;;0.15;0.10;;;;;;;0.28;100.00;102826.91;5079708;28;20063;-47
2021/12/19 09:37:02;;;;;;;0.60;0.22;;;;;;;0.29;100.00;102823.41;5081184;28;20504;-49
2021/12/19 09:39:28;;;;;;;1.55;0.10;;;;;;;0.32;100.00;102826.72;5085532;28;20099;-51
2021/12/19 09:42:01;;;;;;;0.38;0.10;;;;;;;0.37;100.00;102827.38;5082648;28;20051;-50
2021/12/19 09:44:26;;;;;;;1.40;0.45;;;;;;;0.40;100.00;102823.78;5085018;28;20071;-47
2021/12/19 09:46:52;;;;;;;1.02;0.00;;;;;;;0.44;100.00;102812.28;5080784;28;20062;-50
2021/12/19 09:49:20;;;;;;;2.65;0.20;;;;;;;0.50;100.00;102817.22;5083807;28;20028;-49
2021/12/19 09:51:49;;;;;;;1.85;0.28;;;;;;;0.57;100.00;102818.66;5082940;28;20038;-51
2021/12/19 09:54:15;;;;;;;1.33;0.50;;;;;;;0.62;100.00;102823.66;5080428;28;20541;-49
2021/12/19 09:56:42;;;;;;;0.43;0.00;;;;;;;0.69;100.00;102821.63;5078301;28;20032;-48
2021/12/19 09:59:26;;;;;;;0.17;0.15;;;;;;;0.75;100.00;102826.56;5082955;28;20032;-50
2021/12/19 10:01:52;;;;;;;0.40;0.13;;;;;;;0.81;100.00;102826.28;5077575;28;20040;-51
2021/12/19 10:04:37;;;;;;;0.68;0.22;;;;;;;0.89;100.00;102824.19;5080277;28;20542;-52
2021/12/19 10:07:18;;;;;;;0.40;0.00;;;;;;;0.95;100.00;102823.03;5077348;28;20119;-49
2021/12/19 10:09:50;;;;;;;;;;;;;;;0.99;100.00;102824.59;5079766;28;20465;-50
2021/12/19 10:12:51;;;;;;;0.85;0.10;;;;;;;1.06;100.00;102826.03;5078782;28;20014;-51
2021/12/19 10:15:12;;;;;;;0.10;0.10;;;;;;;1.17;100.00;102828.97;5076737;28;20047;-48
2021/12/19 10:17:38;;;;;;;1.60;0.10;;;;;;;1.22;100.00;102823.53;5083678;28;20038;-50
2021/12/19 10:20:09;;;;;;;0.63;0.60;;;;;;;1.27;100.00;102824.16;5077496;28;20028;-47
2021/12/19 10:22:34;;;;;;;2.40;0.15;;;;;;;1.33;100.00;102831.69;5083291;28;20039;-49
2021/12/19 10:25:09;;;;;;;0.75;0.30;;;;;;;1.45;100.00;102830.28;5081146;28;20396;-46
2021/12/19 10:27:40;;;;;;;1.02;0.20;;;;;;;1.58;100.00;102830.53;5076032;28;20057;-47
2021/12/19 10:30:28;;;;;;;0.28;0.28;;;;;;;1.69;100.00;102821.22;5079974;28;20544;-49
2021/12/19 10:33:04;;;;;;;0.40;0.30;;;;;;;1.90;100.00;102819.28;5078679;28;20051;-48
2021/12/19 10:35:35;;;;;;;0.55;0.20;;;;;;;2.02;100.00;102817.84;5079258;28;20028;-51
2021/12/19 10:38:02;;;;;;;;;;;;;;;2.16;100.00;102817.13;5076258;28;20124;-49
2021/12/19 10:40:30;;;;;;;0.10;0.10;;;;;;;2.25;100.00;102818.44;5070536;28;19921;-49
2021/12/19 10:43:03;;;;;;;0.88;0.30;;;;;;;2.36;100.00;102811.69;5077839;28;20039;-49
2021/12/19 10:45:35;;;;;;;0.10;0.00;;;;;;;2.50;100.00;102797.03;5076256;28;20039;-50
2021/12/19 10:48:13;;;;;;;1.10;1.10;;;;;;;2.65;100.00;102795.34;5079536;28;20400;-46
2021/12/19 10:50:51;;;;;;;0.10;0.00;;;;;;;2.72;100.00;102797.56;5077551;28;20115;-51
2021/12/19 10:53:18;;;;;;;0.82;0.20;;;;;;;2.80;100.00;102800.59;5081727;28;20085;-49
2021/12/19 10:55:49;;;;;;;4.82;1.13;;;;;;;2.91;100.00;102802.63;5075432;28;20036;-48
2021/12/19 10:58:18;;;;;;;1.73;1.13;;;;;;;3.02;100.00;102802.91;5077242;28;20028;-50
2021/12/19 11:01:13;;;;;;;2.17;1.05;;;;;;;3.13;100.00;102802.31;5072627;28;20525;-51
2021/12/19 11:03:45;;;;;;;0.95;0.77;;;;;;;3.30;100.00;102795.25;5073350;28;20044;-50
2021/12/19 11:07:02;;;;;;;2.53;0.90;;;;;;;3.39;100.00;102789.50;5070465;28;20061;-48
2021/12/19 11:09:37;;;;;;;1.73;0.80;;;;;;;3.52;100.00;102787.03;5042658;28;20043;-49
2021/12/19 11:12:10;;;;;;;2.28;0.60;;;;;;;3.63;100.00;102785.44;5079232;28;20036;-50
2021/12/19 11:14:39;;;;;;;1.33;0.68;;;;;;;3.72;100.00;102774.44;5081885;28;20115;-48
2021/12/19 11:17:16;;;;;;;0.73;0.47;;;;;;;3.83;100.00;102771.16;5081483;28;20038;-49
2021/12/19 11:19:42;;;;;;;1.55;0.63;;;;;;;3.99;100.00;102762.38;5073280;28;20084;-49
2021/12/19 11:22:09;;;;;;;1.05;0.70;;;;;;;4.09;100.00;102755.63;5082468;28;20550;-49
2021/12/19 11:24:35;;;;;;;2.42;0.75;;;;;;;4.17;100.00;102748.13;5077623;28;20039;-52
2021/12/19 11:27:04;;;;;;;2.33;1.38;;;;;;;4.27;100.00;102737.91;5071856;28;20036;-49
2021/12/19 11:29:30;;;;;;;1.67;1.40;;;;;;;4.33;100.00;102738.38;5079140;28;20028;-49
2021/12/19 11:31:59;;;;;;;2.45;1.20;;;;;;;4.43;100.00;102732.56;5078577;28;20020;-50
2021/12/19 11:35:02;;;;;;;3.13;0.82;;;;;;;4.51;100.00;102731.13;5078053;28;20039;-47
2021/12/19 11:37:39;;;;;;;1.10;0.50;;;;;;;4.62;100.00;102732.22;5071386;28;20041;-49
2021/12/19 11:40:07;;;;;;;1.75;0.88;;;;;;;4.73;100.00;102724.53;5078571;28;20035;-52
2021/12/19 11:42:35;;;;;;;2.40;0.40;;;;;;;4.84;100.00;102719.41;5082056;28;20477;-53
2021/12/19 11:45:26;;;;;;;1.73;0.70;;;;;;;4.95;100.00;102714.28;5070488;28;20486;-53
2021/12/19 11:48:10;;;;;;;0.93;0.63;;;;;;;5.06;100.00;102708.38;5076665;28;20399;-47
2021/12/19 11:50:46;;;;;;;1.10;0.93;;;;;;;5.14;100.00;102703.44;5078374;28;20460;-52
2021/12/19 11:53:11;;;;;;;1.60;0.60;;;;;;;5.16;100.00;102696.31;5079228;28;20127;-50
2021/12/19 11:55:43;;;;;;;1.35;0.90;;;;;;;5.22;100.00;102690.63;5080187;28;20118;-53
2021/12/19 11:58:08;;;;;;;1.30;0.50;;;;;;;5.23;100.00;102681.78;5074266;28;20103;-49
2021/12/19 12:00:38;;;;;;;1.40;0.52;;;;;;;5.27;100.00;102677.16;5078228;28;20039;-50
2021/12/19 12:03:13;;;;;;;1.65;0.60;;;;;;;5.30;100.00;102684.84;5093571;28;20059;-53
2021/12/19 12:05:38;;;;;;;0.63;0.28;;;;;;;5.25;100.00;102674.63;5064898;28;20400;-52
2021/12/19 12:08:10;;;;;;;2.22;0.88;;;;;;;5.24;100.00;102672.97;5075789;28;20028;-49
2021/12/19 12:10:58;;;;;;;1.58;0.85;;;;;;;5.25;100.00;102668.53;5075009;28;20032;-51
2021/12/19 12:13:23;;;;;;;2.65;1.10;;;;;;;5.26;100.00;102667.56;5075796;28;20036;-52
2021/12/19 12:15:57;;;;;;;2.17;1.55;;;;;;;5.31;100.00;102670.75;5074148;28;20496;-49
2021/12/19 12:18:31;;;;;;;1.50;1.00;;;;;;;5.30;100.00;102653.28;5077386;28;20028;-53
2021/12/19 12:20:57;;;;;;;1.42;0.80;;;;;;;5.29;100.00;102654.22;5071296;28;20039;-48
2021/12/19 12:23:26;;;;;;;1.50;0.85;;;;;;;5.33;100.00;102655.69;5072906;28;20035;-50
2021/12/19 12:25:52;;;;;;;1.75;0.28;;;;;;;5.35;100.00;102653.81;5079382;28;20047;-54